sensor_id;sensor_type;location;lat;lon;timestamp;temperature;humidity
41756;DHT22;27435;48.480;9.258;2023-02-22T00:00:22;3.80;99.00
41756;DHT22;27435;48.480;9.258;2023-02-22T00:02:56;3.80;99.00
41756;DHT22;27435;48.480;9.258;2023-02-22T00:05:27;3.70;99.00
41756;DHT22;27435;48.480;9.258;2023-02-22T00:07:55;3.90;99.00
41756;DHT22;27435;48.480;9.258;2023-02-22T00:10:22;3.80;99.00
41756;DHT22;27435;48.480;9.258;2023-02-22T00:12:50;3.60;99.00
41756;DHT22;27435;48.480;9.258;2023-02-22T00:15:18;3.50;99.00
41756;DHT22;27435;48.480;9.258;2023-02-22T00:17:44;3.60;99.00
41756;DHT22;27435;48.480;9.258;2023-02-22T00:20:11;3.70;99.00
41756;DHT22;27435;48.480;9.258;2023-02-22T00:22:43;3.70;99.00
41756;DHT22;27435;48.480;9.258;2023-02-22T00:25:12;3.70;99.00
41756;DHT22;27435;48.480;9.258;2023-02-22T00:27:38;3.40;99.00
41756;DHT22;27435;48.480;9.258;2023-02-22T00:30:04;3.30;99.00
41756;DHT22;27435;48.480;9.258;2023-02-22T00:32:31;3.40;99.00
41756;DHT22;27435;48.480;9.258;2023-02-22T00:34:56;3.40;99.00
41756;DHT22;27435;48.480;9.258;2023-02-22T00:37:23;3.40;99.00
41756;DHT22;27435;48.480;9.258;2023-02-22T00:39:49;3.40;99.00
41756;DHT22;27435;48.480;9.258;2023-02-22T00:42:16;3.60;99.00
41756;DHT22;27435;48.480;9.258;2023-02-22T00:44:42;3.60;99.00
41756;DHT22;27435;48.480;9.258;2023-02-22T00:47:08;3.60;99.00
41756;DHT22;27435;48.480;9.258;2023-02-22T00:49:35;3.70;99.00
41756;DHT22;27435;48.480;9.258;2023-02-22T00:52:01;3.60;99.00
41756;DHT22;27435;48.480;9.258;2023-02-22T00:54:26;4.00;99.00
41756;DHT22;27435;48.480;9.258;2023-02-22T00:56:52;4.10;99.00
41756;DHT22;27435;48.480;9.258;2023-02-22T00:59:18;4.20;99.00
41756;DHT22;27435;48.480;9.258;2023-02-22T01:01:43;4.10;99.00
41756;DHT22;27435;48.480;9.258;2023-02-22T01:04:09;4.10;99.00
41756;DHT22;27435;48.480;9.258;2023-02-22T01:06:35;4.00;99.00
41756;DHT22;27435;48.480;9.258;2023-02-22T01:09:01;4.00;99.00
41756;DHT22;27435;48.480;9.258;2023-02-22T01:11:27;3.90;99.00
41756;DHT22;27435;48.480;9.258;2023-02-22T01:13:54;3.80;99.00
41756;DHT22;27435;48.480;9.258;2023-02-22T01:16:20;3.80;99.00
41756;DHT22;27435;48.480;9.258;2023-02-22T01:18:46;3.70;99.00
41756;DHT22;27435;48.480;9.258;2023-02-22T01:21:12;3.60;99.00
41756;DHT22;27435;48.480;9.258;2023-02-22T01:23:37;3.60;99.00
41756;DHT22;27435;48.480;9.258;2023-02-22T01:26:04;3.50;99.00
41756;DHT22;27435;48.480;9.258;2023-02-22T01:28:33;3.40;99.00
41756;DHT22;27435;48.480;9.258;2023-02-22T01:30:59;3.30;99.00
41756;DHT22;27435;48.480;9.258;2023-02-22T01:33:26;3.30;99.00
41756;DHT22;27435;48.480;9.258;2023-02-22T01:35:52;3.30;99.00
41756;DHT22;27435;48.480;9.258;2023-02-22T01:38:18;3.30;99.00
41756;DHT22;27435;48.480;9.258;2023-02-22T01:40:47;3.40;99.00
41756;DHT22;27435;48.480;9.258;2023-02-22T01:43:22;3.60;99.00
41756;DHT22;27435;48.480;9.258;2023-02-22T01:45:56;3.40;99.00
41756;DHT22;27435;48.480;9.258;2023-02-22T01:48:49;3.30;99.00
41756;DHT22;27435;48.480;9.258;2023-02-22T01:51:35;3.50;99.00
41756;DHT22;27435;48.480;9.258;2023-02-22T01:54:09;3.60;99.00
41756;DHT22;27435;48.480;9.258;2023-02-22T01:56:39;3.60;99.00
41756;DHT22;27435;48.480;9.258;2023-02-22T01:59:08;3.50;99.00
41756;DHT22;27435;48.480;9.258;2023-02-22T02:01:36;3.60;99.00
41756;DHT22;27435;48.480;9.258;2023-02-22T02:04:09;3.40;99.00
41756;DHT22;27435;48.480;9.258;2023-02-22T02:06:36;3.30;99.00
41756;DHT22;27435;48.480;9.258;2023-02-22T02:09:26;3.30;99.00
41756;DHT22;27435;48.480;9.258;2023-02-22T02:11:56;3.30;99.00
41756;DHT22;27435;48.480;9.258;2023-02-22T02:14:25;3.20;99.00
41756;DHT22;27435;48.480;9.258;2023-02-22T02:16:52;3.10;99.00
41756;DHT22;27435;48.480;9.258;2023-02-22T02:22:25;3.40;99.00
41756;DHT22;27435;48.480;9.258;2023-02-22T02:28:07;3.30;99.00
41756;DHT22;27435;48.480;9.258;2023-02-22T02:33:22;3.00;99.00
41756;DHT22;27435;48.480;9.258;2023-02-22T02:36:12;2.90;99.00
41756;DHT22;27435;48.480;9.258;2023-02-22T02:41:10;2.90;99.00
41756;DHT22;27435;48.480;9.258;2023-02-22T02:43:49;2.90;99.00
41756;DHT22;27435;48.480;9.258;2023-02-22T02:46:39;3.00;99.00
41756;DHT22;27435;48.480;9.258;2023-02-22T02:49:12;3.00;99.00
41756;DHT22;27435;48.480;9.258;2023-02-22T02:51:45;3.00;99.00
41756;DHT22;27435;48.480;9.258;2023-02-22T02:54:13;3.00;99.00
41756;DHT22;27435;48.480;9.258;2023-02-22T02:56:40;3.00;99.00
41756;DHT22;27435;48.480;9.258;2023-02-22T02:59:27;3.00;99.00
41756;DHT22;27435;48.480;9.258;2023-02-22T03:18:10;2.90;99.00
41756;DHT22;27435;48.480;9.258;2023-02-22T03:26:08;2.90;99.00
41756;DHT22;27435;48.480;9.258;2023-02-22T03:28:37;2.90;99.00
41756;DHT22;27435;48.480;9.258;2023-02-22T03:31:24;2.80;99.00
41756;DHT22;27435;48.480;9.258;2023-02-22T03:33:55;2.80;99.00
41756;DHT22;27435;48.480;9.258;2023-02-22T03:36:25;2.90;99.00
41756;DHT22;27435;48.480;9.258;2023-02-22T03:38:53;2.90;99.00
41756;DHT22;27435;48.480;9.258;2023-02-22T03:41:22;2.80;99.00
41756;DHT22;27435;48.480;9.258;2023-02-22T03:43:53;2.70;99.00
41756;DHT22;27435;48.480;9.258;2023-02-22T03:46:21;2.60;99.00
41756;DHT22;27435;48.480;9.258;2023-02-22T03:51:50;2.60;99.00
41756;DHT22;27435;48.480;9.258;2023-02-22T03:54:16;2.60;99.00
41756;DHT22;27435;48.480;9.258;2023-02-22T03:56:48;2.40;99.00
41756;DHT22;27435;48.480;9.258;2023-02-22T03:59:15;2.40;99.00
41756;DHT22;27435;48.480;9.258;2023-02-22T04:01:41;2.30;99.00
41756;DHT22;27435;48.480;9.258;2023-02-22T04:04:06;2.20;99.00
41756;DHT22;27435;48.480;9.258;2023-02-22T04:06:32;2.20;99.00
41756;DHT22;27435;48.480;9.258;2023-02-22T04:08:57;2.10;99.00
41756;DHT22;27435;48.480;9.258;2023-02-22T04:11:23;2.10;99.00
41756;DHT22;27435;48.480;9.258;2023-02-22T04:13:49;2.00;99.00
41756;DHT22;27435;48.480;9.258;2023-02-22T04:16:14;2.00;99.00
41756;DHT22;27435;48.480;9.258;2023-02-22T04:18:40;2.10;99.00
41756;DHT22;27435;48.480;9.258;2023-02-22T04:21:05;2.10;99.00
41756;DHT22;27435;48.480;9.258;2023-02-22T04:23:31;2.10;99.00
41756;DHT22;27435;48.480;9.258;2023-02-22T04:25:56;2.10;99.00
41756;DHT22;27435;48.480;9.258;2023-02-22T04:28:22;2.10;99.00
41756;DHT22;27435;48.480;9.258;2023-02-22T04:30:48;2.10;99.00
41756;DHT22;27435;48.480;9.258;2023-02-22T04:33:13;1.90;99.00
41756;DHT22;27435;48.480;9.258;2023-02-22T04:35:40;1.80;99.00
41756;DHT22;27435;48.480;9.258;2023-02-22T04:38:06;1.80;99.00
41756;DHT22;27435;48.480;9.258;2023-02-22T04:40:33;1.70;99.00
41756;DHT22;27435;48.480;9.258;2023-02-22T04:42:59;1.90;99.00
41756;DHT22;27435;48.480;9.258;2023-02-22T04:45:25;1.80;99.00
41756;DHT22;27435;48.480;9.258;2023-02-22T04:47:51;1.80;99.00
41756;DHT22;27435;48.480;9.258;2023-02-22T04:50:16;1.90;99.00
41756;DHT22;27435;48.480;9.258;2023-02-22T04:52:42;1.90;99.00
41756;DHT22;27435;48.480;9.258;2023-02-22T04:55:08;1.90;99.00
41756;DHT22;27435;48.480;9.258;2023-02-22T04:57:34;2.00;99.00
41756;DHT22;27435;48.480;9.258;2023-02-22T04:59:59;2.00;99.00
41756;DHT22;27435;48.480;9.258;2023-02-22T05:02:25;2.10;99.00
41756;DHT22;27435;48.480;9.258;2023-02-22T05:04:51;1.90;99.00
41756;DHT22;27435;48.480;9.258;2023-02-22T05:07:16;1.70;99.00
41756;DHT22;27435;48.480;9.258;2023-02-22T05:09:43;1.60;99.00
41756;DHT22;27435;48.480;9.258;2023-02-22T05:12:08;1.60;99.00
41756;DHT22;27435;48.480;9.258;2023-02-22T05:14:34;1.70;99.00
41756;DHT22;27435;48.480;9.258;2023-02-22T05:17:00;1.80;99.00
41756;DHT22;27435;48.480;9.258;2023-02-22T05:19:26;1.90;99.00
41756;DHT22;27435;48.480;9.258;2023-02-22T05:21:52;2.00;99.00
41756;DHT22;27435;48.480;9.258;2023-02-22T05:24:17;1.90;99.00
41756;DHT22;27435;48.480;9.258;2023-02-22T05:26:44;1.80;99.00
41756;DHT22;27435;48.480;9.258;2023-02-22T05:29:09;1.80;99.00
41756;DHT22;27435;48.480;9.258;2023-02-22T05:31:35;1.80;99.00
41756;DHT22;27435;48.480;9.258;2023-02-22T05:34:01;1.90;99.00
41756;DHT22;27435;48.480;9.258;2023-02-22T05:36:26;2.00;99.00
41756;DHT22;27435;48.480;9.258;2023-02-22T05:38:53;2.00;99.00
41756;DHT22;27435;48.480;9.258;2023-02-22T05:41:18;2.00;99.00
41756;DHT22;27435;48.480;9.258;2023-02-22T05:43:44;1.90;99.00
41756;DHT22;27435;48.480;9.258;2023-02-22T05:46:10;1.80;99.00
41756;DHT22;27435;48.480;9.258;2023-02-22T05:48:36;1.80;99.00
41756;DHT22;27435;48.480;9.258;2023-02-22T05:51:02;1.90;99.00
41756;DHT22;27435;48.480;9.258;2023-02-22T05:53:28;2.10;99.00
41756;DHT22;27435;48.480;9.258;2023-02-22T05:55:54;2.10;99.00
41756;DHT22;27435;48.480;9.258;2023-02-22T05:58:19;2.10;99.00
41756;DHT22;27435;48.480;9.258;2023-02-22T06:00:45;2.00;99.00
41756;DHT22;27435;48.480;9.258;2023-02-22T06:03:11;2.00;99.00
41756;DHT22;27435;48.480;9.258;2023-02-22T06:05:37;2.10;99.00
41756;DHT22;27435;48.480;9.258;2023-02-22T06:08:05;2.10;99.00
41756;DHT22;27435;48.480;9.258;2023-02-22T06:10:31;2.00;99.00
41756;DHT22;27435;48.480;9.258;2023-02-22T06:12:57;2.00;99.00
41756;DHT22;27435;48.480;9.258;2023-02-22T06:15:24;1.90;99.00
41756;DHT22;27435;48.480;9.258;2023-02-22T06:17:51;1.80;99.00
41756;DHT22;27435;48.480;9.258;2023-02-22T06:20:19;1.70;99.00
41756;DHT22;27435;48.480;9.258;2023-02-22T06:22:49;1.70;99.00
41756;DHT22;27435;48.480;9.258;2023-02-22T06:25:17;1.80;99.00
41756;DHT22;27435;48.480;9.258;2023-02-22T06:27:42;1.90;99.00
41756;DHT22;27435;48.480;9.258;2023-02-22T06:30:10;1.90;99.00
41756;DHT22;27435;48.480;9.258;2023-02-22T06:32:36;2.00;99.00
41756;DHT22;27435;48.480;9.258;2023-02-22T06:35:02;2.30;99.00
41756;DHT22;27435;48.480;9.258;2023-02-22T06:37:28;2.40;99.00
41756;DHT22;27435;48.480;9.258;2023-02-22T06:39:53;2.40;99.00
41756;DHT22;27435;48.480;9.258;2023-02-22T06:42:19;2.40;99.00
41756;DHT22;27435;48.480;9.258;2023-02-22T06:44:45;2.20;99.00
41756;DHT22;27435;48.480;9.258;2023-02-22T06:47:10;2.10;99.00
41756;DHT22;27435;48.480;9.258;2023-02-22T06:49:36;2.20;99.00
41756;DHT22;27435;48.480;9.258;2023-02-22T06:52:06;2.20;99.00
41756;DHT22;27435;48.480;9.258;2023-02-22T06:54:32;2.40;99.00
41756;DHT22;27435;48.480;9.258;2023-02-22T06:56:58;2.60;99.00
41756;DHT22;27435;48.480;9.258;2023-02-22T06:59:24;2.70;99.00
41756;DHT22;27435;48.480;9.258;2023-02-22T07:01:49;3.10;99.00
41756;DHT22;27435;48.480;9.258;2023-02-22T07:04:15;3.30;99.00
41756;DHT22;27435;48.480;9.258;2023-02-22T07:06:48;3.20;99.00
41756;DHT22;27435;48.480;9.258;2023-02-22T07:09:15;3.10;99.00
41756;DHT22;27435;48.480;9.258;2023-02-22T07:11:41;3.20;99.00
41756;DHT22;27435;48.480;9.258;2023-02-22T07:14:07;3.20;99.00
41756;DHT22;27435;48.480;9.258;2023-02-22T07:16:33;3.30;99.00
41756;DHT22;27435;48.480;9.258;2023-02-22T07:18:59;3.40;99.00
41756;DHT22;27435;48.480;9.258;2023-02-22T07:21:25;3.60;99.00
41756;DHT22;27435;48.480;9.258;2023-02-22T07:23:53;3.80;99.00
41756;DHT22;27435;48.480;9.258;2023-02-22T07:26:19;4.00;99.00
41756;DHT22;27435;48.480;9.258;2023-02-22T07:28:45;4.10;99.00
41756;DHT22;27435;48.480;9.258;2023-02-22T07:31:11;4.10;99.00
41756;DHT22;27435;48.480;9.258;2023-02-22T07:33:37;4.20;99.00
41756;DHT22;27435;48.480;9.258;2023-02-22T07:36:02;4.30;99.00
41756;DHT22;27435;48.480;9.258;2023-02-22T07:38:28;4.30;99.00
41756;DHT22;27435;48.480;9.258;2023-02-22T07:40:54;4.40;99.00
41756;DHT22;27435;48.480;9.258;2023-02-22T07:43:26;4.30;99.00
41756;DHT22;27435;48.480;9.258;2023-02-22T07:45:54;4.50;99.00
41756;DHT22;27435;48.480;9.258;2023-02-22T07:48:21;4.50;99.00
41756;DHT22;27435;48.480;9.258;2023-02-22T07:50:48;4.60;99.00
41756;DHT22;27435;48.480;9.258;2023-02-22T07:53:19;4.50;99.00
41756;DHT22;27435;48.480;9.258;2023-02-22T07:55:45;4.60;99.00
41756;DHT22;27435;48.480;9.258;2023-02-22T07:58:17;4.60;99.00
41756;DHT22;27435;48.480;9.258;2023-02-22T08:00:43;4.70;99.00
41756;DHT22;27435;48.480;9.258;2023-02-22T08:03:11;4.90;99.00
41756;DHT22;27435;48.480;9.258;2023-02-22T08:05:38;5.00;99.00
41756;DHT22;27435;48.480;9.258;2023-02-22T08:08:05;4.90;99.00
41756;DHT22;27435;48.480;9.258;2023-02-22T08:10:32;4.90;99.00
41756;DHT22;27435;48.480;9.258;2023-02-22T08:12:59;4.90;99.00
41756;DHT22;27435;48.480;9.258;2023-02-22T08:15:33;5.10;99.00
41756;DHT22;27435;48.480;9.258;2023-02-22T08:18:01;5.10;99.00
41756;DHT22;27435;48.480;9.258;2023-02-22T08:20:28;5.10;99.00
41756;DHT22;27435;48.480;9.258;2023-02-22T08:22:55;5.20;99.00
41756;DHT22;27435;48.480;9.258;2023-02-22T08:25:23;5.20;99.00
41756;DHT22;27435;48.480;9.258;2023-02-22T08:27:50;5.20;99.00
41756;DHT22;27435;48.480;9.258;2023-02-22T08:30:21;5.20;99.00
41756;DHT22;27435;48.480;9.258;2023-02-22T08:32:47;5.20;99.00
41756;DHT22;27435;48.480;9.258;2023-02-22T08:35:16;5.40;99.00
41756;DHT22;27435;48.480;9.258;2023-02-22T08:37:46;5.40;99.00
41756;DHT22;27435;48.480;9.258;2023-02-22T08:40:12;5.40;99.00
41756;DHT22;27435;48.480;9.258;2023-02-22T08:42:38;5.50;99.00
41756;DHT22;27435;48.480;9.258;2023-02-22T08:45:04;5.70;99.00
41756;DHT22;27435;48.480;9.258;2023-02-22T08:47:30;5.90;99.00
41756;DHT22;27435;48.480;9.258;2023-02-22T08:49:56;6.10;99.00
41756;DHT22;27435;48.480;9.258;2023-02-22T08:52:21;6.10;99.00
41756;DHT22;27435;48.480;9.258;2023-02-22T08:54:47;6.30;99.00
41756;DHT22;27435;48.480;9.258;2023-02-22T08:57:13;6.50;99.00
41756;DHT22;27435;48.480;9.258;2023-02-22T08:59:39;6.60;99.00
41756;DHT22;27435;48.480;9.258;2023-02-22T09:02:05;6.70;99.00
41756;DHT22;27435;48.480;9.258;2023-02-22T09:04:35;6.70;99.00
41756;DHT22;27435;48.480;9.258;2023-02-22T09:07:00;6.90;99.00
41756;DHT22;27435;48.480;9.258;2023-02-22T09:09:26;7.30;98.80
41756;DHT22;27435;48.480;9.258;2023-02-22T09:11:51;7.40;98.30
41756;DHT22;27435;48.480;9.258;2023-02-22T09:14:17;7.50;97.70
41756;DHT22;27435;48.480;9.258;2023-02-22T09:16:44;7.60;97.30
41756;DHT22;27435;48.480;9.258;2023-02-22T09:19:10;7.80;97.00
41756;DHT22;27435;48.480;9.258;2023-02-22T09:21:36;8.10;96.10
41756;DHT22;27435;48.480;9.258;2023-02-22T09:24:01;8.30;95.40
41756;DHT22;27435;48.480;9.258;2023-02-22T09:26:34;8.50;94.90
41756;DHT22;27435;48.480;9.258;2023-02-22T09:28:59;8.70;94.10
41756;DHT22;27435;48.480;9.258;2023-02-22T09:31:26;8.80;93.40
41756;DHT22;27435;48.480;9.258;2023-02-22T09:33:51;8.80;92.40
41756;DHT22;27435;48.480;9.258;2023-02-22T09:36:17;8.80;92.20
41756;DHT22;27435;48.480;9.258;2023-02-22T09:38:43;9.00;91.20
41756;DHT22;27435;48.480;9.258;2023-02-22T09:41:27;9.10;90.70
41756;DHT22;27435;48.480;9.258;2023-02-22T09:44:23;8.90;90.20
41756;DHT22;27435;48.480;9.258;2023-02-22T09:46:52;9.00;90.70
41756;DHT22;27435;48.480;9.258;2023-02-22T09:49:23;9.10;89.80
41756;DHT22;27435;48.480;9.258;2023-02-22T09:52:03;9.20;89.10
41756;DHT22;27435;48.480;9.258;2023-02-22T09:54:37;9.30;88.80
41756;DHT22;27435;48.480;9.258;2023-02-22T09:57:12;9.40;88.50
41756;DHT22;27435;48.480;9.258;2023-02-22T10:00:03;9.40;88.70
41756;DHT22;27435;48.480;9.258;2023-02-22T10:03:05;9.40;87.90
41756;DHT22;27435;48.480;9.258;2023-02-22T10:05:35;9.60;87.40
41756;DHT22;27435;48.480;9.258;2023-02-22T10:08:05;9.70;87.50
41756;DHT22;27435;48.480;9.258;2023-02-22T10:10:38;9.80;87.40
41756;DHT22;27435;48.480;9.258;2023-02-22T10:13:26;9.90;87.20
41756;DHT22;27435;48.480;9.258;2023-02-22T10:16:21;10.20;87.40
41756;DHT22;27435;48.480;9.258;2023-02-22T10:19:36;10.80;85.60
41756;DHT22;27435;48.480;9.258;2023-02-22T10:25:04;11.60;82.30
41756;DHT22;27435;48.480;9.258;2023-02-22T10:27:38;11.70;81.80
41756;DHT22;27435;48.480;9.258;2023-02-22T10:30:13;11.80;81.10
41756;DHT22;27435;48.480;9.258;2023-02-22T10:32:44;11.80;80.50
41756;DHT22;27435;48.480;9.258;2023-02-22T10:35:24;11.60;80.30
41756;DHT22;27435;48.480;9.258;2023-02-22T10:37:54;11.70;80.60
41756;DHT22;27435;48.480;9.258;2023-02-22T10:40:23;11.90;80.60
41756;DHT22;27435;48.480;9.258;2023-02-22T10:42:59;12.10;80.00
41756;DHT22;27435;48.480;9.258;2023-02-22T10:45:30;12.50;78.70
41756;DHT22;27435;48.480;9.258;2023-02-22T10:47:59;12.70;77.30
41756;DHT22;27435;48.480;9.258;2023-02-22T10:50:27;12.80;77.30
41756;DHT22;27435;48.480;9.258;2023-02-22T10:52:54;12.80;76.60
41756;DHT22;27435;48.480;9.258;2023-02-22T10:55:20;12.80;76.70
41756;DHT22;27435;48.480;9.258;2023-02-22T10:57:48;12.80;76.50
41756;DHT22;27435;48.480;9.258;2023-02-22T11:00:28;12.90;75.70
41756;DHT22;27435;48.480;9.258;2023-02-22T11:02:59;13.00;76.10
41756;DHT22;27435;48.480;9.258;2023-02-22T11:05:33;13.00;75.50
41756;DHT22;27435;48.480;9.258;2023-02-22T11:10:46;12.40;77.20
41756;DHT22;27435;48.480;9.258;2023-02-22T11:13:24;12.60;77.00
41756;DHT22;27435;48.480;9.258;2023-02-22T11:15:51;12.50;76.90
41756;DHT22;27435;48.480;9.258;2023-02-22T11:18:25;12.30;77.50
41756;DHT22;27435;48.480;9.258;2023-02-22T11:21:09;12.70;77.20
41756;DHT22;27435;48.480;9.258;2023-02-22T11:23:39;13.00;76.20
41756;DHT22;27435;48.480;9.258;2023-02-22T11:26:17;13.40;74.90
41756;DHT22;27435;48.480;9.258;2023-02-22T11:28:52;13.90;73.70
41756;DHT22;27435;48.480;9.258;2023-02-22T11:31:26;14.10;72.70
41756;DHT22;27435;48.480;9.258;2023-02-22T11:33:55;14.50;71.50
41756;DHT22;27435;48.480;9.258;2023-02-22T11:39:01;14.50;70.50
41756;DHT22;27435;48.480;9.258;2023-02-22T11:41:31;14.70;70.60
41756;DHT22;27435;48.480;9.258;2023-02-22T11:46:53;15.50;68.10
41756;DHT22;27435;48.480;9.258;2023-02-22T11:49:24;15.60;66.50
41756;DHT22;27435;48.480;9.258;2023-02-22T11:52:18;15.10;67.00
41756;DHT22;27435;48.480;9.258;2023-02-22T11:55:05;14.90;68.50
41756;DHT22;27435;48.480;9.258;2023-02-22T12:00:48;15.50;66.80
41756;DHT22;27435;48.480;9.258;2023-02-22T12:04:25;15.80;66.40
41756;DHT22;27435;48.480;9.258;2023-02-22T12:06:45;15.50;67.10
41756;DHT22;27435;48.480;9.258;2023-02-22T12:15:02;15.70;64.20
41756;DHT22;27435;48.480;9.258;2023-02-22T12:17:49;15.80;64.70
41756;DHT22;27435;48.480;9.258;2023-02-22T12:20:17;15.90;63.20
41756;DHT22;27435;48.480;9.258;2023-02-22T12:23:02;15.80;63.30
41756;DHT22;27435;48.480;9.258;2023-02-22T12:25:40;15.60;64.40
41756;DHT22;27435;48.480;9.258;2023-02-22T12:28:20;15.60;63.30
41756;DHT22;27435;48.480;9.258;2023-02-22T12:30:56;15.50;63.30
41756;DHT22;27435;48.480;9.258;2023-02-22T12:33:28;15.50;63.90
41756;DHT22;27435;48.480;9.258;2023-02-22T12:35:58;15.60;64.20
41756;DHT22;27435;48.480;9.258;2023-02-22T12:38:38;15.20;64.20
41756;DHT22;27435;48.480;9.258;2023-02-22T12:41:30;15.10;65.00
41756;DHT22;27435;48.480;9.258;2023-02-22T12:44:13;15.30;64.40
41756;DHT22;27435;48.480;9.258;2023-02-22T12:46:45;15.20;64.90
41756;DHT22;27435;48.480;9.258;2023-02-22T12:54:46;15.00;65.30
41756;DHT22;27435;48.480;9.258;2023-02-22T12:57:41;15.00;65.20
41756;DHT22;27435;48.480;9.258;2023-02-22T13:00:11;15.00;66.10
41756;DHT22;27435;48.480;9.258;2023-02-22T13:03:00;15.00;65.50
41756;DHT22;27435;48.480;9.258;2023-02-22T13:05:33;14.90;66.70
41756;DHT22;27435;48.480;9.258;2023-02-22T13:11:54;15.20;66.10
41756;DHT22;27435;48.480;9.258;2023-02-22T13:22:08;14.80;66.10
41756;DHT22;27435;48.480;9.258;2023-02-22T13:27:19;14.70;66.20
41756;DHT22;27435;48.480;9.258;2023-02-22T13:29:48;14.40;67.00
41756;DHT22;27435;48.480;9.258;2023-02-22T13:32:30;14.50;67.10
41756;DHT22;27435;48.480;9.258;2023-02-22T13:35:22;14.60;67.00
41756;DHT22;27435;48.480;9.258;2023-02-22T13:40:47;14.70;66.50
41756;DHT22;27435;48.480;9.258;2023-02-22T13:55:05;14.70;65.00
41756;DHT22;27435;48.480;9.258;2023-02-22T13:57:18;14.80;64.90
41756;DHT22;27435;48.480;9.258;2023-02-22T13:59:45;14.90;65.00
41756;DHT22;27435;48.480;9.258;2023-02-22T14:13:30;14.80;64.90
41756;DHT22;27435;48.480;9.258;2023-02-22T14:18:39;15.00;65.00
41756;DHT22;27435;48.480;9.258;2023-02-22T14:21:07;15.20;64.00
41756;DHT22;27435;48.480;9.258;2023-02-22T14:31:29;14.90;64.80
41756;DHT22;27435;48.480;9.258;2023-02-22T14:34:15;15.20;64.60
41756;DHT22;27435;48.480;9.258;2023-02-22T14:36:53;15.10;64.50
41756;DHT22;27435;48.480;9.258;2023-02-22T14:39:40;15.20;64.60
41756;DHT22;27435;48.480;9.258;2023-02-22T14:42:15;15.20;64.90
41756;DHT22;27435;48.480;9.258;2023-02-22T14:44:54;15.20;64.90
41756;DHT22;27435;48.480;9.258;2023-02-22T14:47:26;15.10;64.70
41756;DHT22;27435;48.480;9.258;2023-02-22T14:50:02;15.20;65.20
41756;DHT22;27435;48.480;9.258;2023-02-22T14:52:31;15.30;65.00
41756;DHT22;27435;48.480;9.258;2023-02-22T15:03:01;15.00;65.30
41756;DHT22;27435;48.480;9.258;2023-02-22T15:05:34;14.90;66.10
41756;DHT22;27435;48.480;9.258;2023-02-22T15:08:05;14.60;66.00
41756;DHT22;27435;48.480;9.258;2023-02-22T15:13:21;14.40;66.60
41756;DHT22;27435;48.480;9.258;2023-02-22T15:16:02;14.40;67.80
41756;DHT22;27435;48.480;9.258;2023-02-22T15:18:39;14.20;68.60
41756;DHT22;27435;48.480;9.258;2023-02-22T15:21:14;14.10;68.80
41756;DHT22;27435;48.480;9.258;2023-02-22T15:23:58;14.10;68.90
41756;DHT22;27435;48.480;9.258;2023-02-22T15:26:30;14.00;68.70
41756;DHT22;27435;48.480;9.258;2023-02-22T15:29:00;13.90;69.60
41756;DHT22;27435;48.480;9.258;2023-02-22T15:31:36;13.80;70.20
41756;DHT22;27435;48.480;9.258;2023-02-22T15:34:29;13.80;71.10
41756;DHT22;27435;48.480;9.258;2023-02-22T15:36:56;13.50;72.50
41756;DHT22;27435;48.480;9.258;2023-02-22T15:39:28;13.40;73.00
41756;DHT22;27435;48.480;9.258;2023-02-22T15:44:42;13.40;73.60
41756;DHT22;27435;48.480;9.258;2023-02-22T15:47:18;13.20;74.70
41756;DHT22;27435;48.480;9.258;2023-02-22T15:49:45;13.20;75.00
41756;DHT22;27435;48.480;9.258;2023-02-22T15:52:18;13.20;75.50
41756;DHT22;27435;48.480;9.258;2023-02-22T15:54:51;13.10;76.10
41756;DHT22;27435;48.480;9.258;2023-02-22T15:57:20;13.00;76.50
41756;DHT22;27435;48.480;9.258;2023-02-22T15:59:50;13.10;76.60
41756;DHT22;27435;48.480;9.258;2023-02-22T16:02:38;13.00;76.70
41756;DHT22;27435;48.480;9.258;2023-02-22T16:05:08;13.00;76.70
41756;DHT22;27435;48.480;9.258;2023-02-22T16:07:49;12.90;77.10
41756;DHT22;27435;48.480;9.258;2023-02-22T16:10:27;12.90;77.80
41756;DHT22;27435;48.480;9.258;2023-02-22T16:13:21;12.90;77.80
41756;DHT22;27435;48.480;9.258;2023-02-22T16:16:18;12.70;78.80
41756;DHT22;27435;48.480;9.258;2023-02-22T16:18:46;12.80;78.60
41756;DHT22;27435;48.480;9.258;2023-02-22T16:21:16;12.80;78.90
41756;DHT22;27435;48.480;9.258;2023-02-22T16:26:24;12.70;79.20
41756;DHT22;27435;48.480;9.258;2023-02-22T16:28:53;12.70;79.50
41756;DHT22;27435;48.480;9.258;2023-02-22T16:31:25;12.50;79.90
41756;DHT22;27435;48.480;9.258;2023-02-22T16:33:52;12.60;80.20
41756;DHT22;27435;48.480;9.258;2023-02-22T16:36:19;12.60;80.20
41756;DHT22;27435;48.480;9.258;2023-02-22T16:38:46;12.50;80.30
41756;DHT22;27435;48.480;9.258;2023-02-22T16:41:17;12.50;80.80
41756;DHT22;27435;48.480;9.258;2023-02-22T16:43:48;12.40;80.90
41756;DHT22;27435;48.480;9.258;2023-02-22T16:46:16;12.40;81.10
41756;DHT22;27435;48.480;9.258;2023-02-22T16:48:43;12.20;81.70
41756;DHT22;27435;48.480;9.258;2023-02-22T16:51:23;12.10;82.40
41756;DHT22;27435;48.480;9.258;2023-02-22T16:53:52;12.00;82.50
41756;DHT22;27435;48.480;9.258;2023-02-22T16:56:20;12.00;82.80
41756;DHT22;27435;48.480;9.258;2023-02-22T16:58:48;11.90;82.80
41756;DHT22;27435;48.480;9.258;2023-02-22T17:01:16;11.70;83.60
41756;DHT22;27435;48.480;9.258;2023-02-22T17:03:42;11.70;83.40
41756;DHT22;27435;48.480;9.258;2023-02-22T17:06:08;11.70;83.80
41756;DHT22;27435;48.480;9.258;2023-02-22T17:08:39;11.70;84.20
41756;DHT22;27435;48.480;9.258;2023-02-22T17:11:06;11.60;84.20
41756;DHT22;27435;48.480;9.258;2023-02-22T17:13:32;11.60;84.20
41756;DHT22;27435;48.480;9.258;2023-02-22T17:16:00;11.60;84.40
41756;DHT22;27435;48.480;9.258;2023-02-22T17:18:26;11.60;85.00
41756;DHT22;27435;48.480;9.258;2023-02-22T17:20:53;11.60;85.50
41756;DHT22;27435;48.480;9.258;2023-02-22T17:23:19;11.60;85.50
41756;DHT22;27435;48.480;9.258;2023-02-22T17:25:50;11.50;85.00
41756;DHT22;27435;48.480;9.258;2023-02-22T17:28:17;11.40;85.80
41756;DHT22;27435;48.480;9.258;2023-02-22T17:30:43;11.30;86.30
41756;DHT22;27435;48.480;9.258;2023-02-22T17:33:17;11.20;86.30
41756;DHT22;27435;48.480;9.258;2023-02-22T17:35:43;11.10;86.90
41756;DHT22;27435;48.480;9.258;2023-02-22T17:38:09;11.00;87.40
41756;DHT22;27435;48.480;9.258;2023-02-22T17:40:37;10.90;87.50
41756;DHT22;27435;48.480;9.258;2023-02-22T17:43:04;10.80;88.70
41756;DHT22;27435;48.480;9.258;2023-02-22T17:45:30;10.60;89.10
41756;DHT22;27435;48.480;9.258;2023-02-22T17:47:56;10.60;89.20
41756;DHT22;27435;48.480;9.258;2023-02-22T17:50:23;10.50;89.40
41756;DHT22;27435;48.480;9.258;2023-02-22T17:52:49;10.40;89.30
41756;DHT22;27435;48.480;9.258;2023-02-22T17:55:19;10.50;89.50
41756;DHT22;27435;48.480;9.258;2023-02-22T17:57:46;10.50;89.70
41756;DHT22;27435;48.480;9.258;2023-02-22T18:00:16;10.50;88.90
41756;DHT22;27435;48.480;9.258;2023-02-22T18:02:48;10.40;89.30
41756;DHT22;27435;48.480;9.258;2023-02-22T18:05:14;10.10;90.20
41756;DHT22;27435;48.480;9.258;2023-02-22T18:07:43;10.00;90.80